createdAt,value
2019-06-26T00:00:11.093Z,70.55
2019-06-26T00:02:38.512Z,70.78
2019-06-26T00:05:05.544Z,71.12
2019-06-26T00:07:32.906Z,71.79
2019-06-26T00:10:01.355Z,71.87
2019-06-26T00:12:28.451Z,71.94
2019-06-26T00:14:55.488Z,71.79
2019-06-26T00:17:22.778Z,71.87
2019-06-26T00:19:50.065Z,71.69
2019-06-26T00:22:17.116Z,71.81
2019-06-26T00:24:44.148Z,72.00
2019-06-26T00:27:11.449Z,72.11
2019-06-26T00:29:38.569Z,72.27
2019-06-26T00:32:05.862Z,72.39
2019-06-26T00:34:33.136Z,72.55
2019-06-26T00:37:00.427Z,72.58
2019-06-26T00:39:27.712Z,72.79
2019-06-26T00:41:54.761Z,72.95
2019-06-26T00:44:21.793Z,73.13
2019-06-26T00:46:48.919Z,73.51
2019-06-26T00:49:16.193Z,73.97
2019-06-26T00:51:43.253Z,74.14
2019-06-26T00:54:10.544Z,73.82
2019-06-26T00:56:37.600Z,74.34
2019-06-26T00:59:04.957Z,74.88
2019-06-26T01:01:32.237Z,75.63
2019-06-26T01:04:00.494Z,75.75
2019-06-26T01:06:27.771Z,76.02
2019-06-26T01:08:54.826Z,76.05
2019-06-26T01:11:21.867Z,76.02
2019-06-26T01:13:57.606Z,76.14
2019-06-26T01:16:17.662Z,76.06
2019-06-26T01:18:44.797Z,75.95
2019-06-26T01:21:12.102Z,76.10
2019-06-26T01:23:39.152Z,76.22
2019-06-26T01:26:06.195Z,76.23
2019-06-26T01:28:35.109Z,76.20
2019-06-26T01:31:02.432Z,76.08
2019-06-26T01:33:29.740Z,75.60
2019-06-26T01:35:57.028Z,74.30
2019-06-26T01:38:24.075Z,73.37
2019-06-26T01:40:51.368Z,74.02
2019-06-26T01:43:18.398Z,74.54
2019-06-26T01:45:45.693Z,73.54
2019-06-26T01:48:12.981Z,74.50
2019-06-26T01:50:40.022Z,73.65
2019-06-26T01:53:07.329Z,73.63
2019-06-26T01:55:34.363Z,72.21
2019-06-26T01:58:01.454Z,72.62
2019-06-26T02:00:28.442Z,73.33
2019-06-26T02:02:55.736Z,73.04
2019-06-26T02:05:23.033Z,72.64
2019-06-26T02:07:50.098Z,71.89
2019-06-26T02:10:17.127Z,71.63
2019-06-26T02:12:44.179Z,70.69
2019-06-26T02:15:11.210Z,69.85
2019-06-26T02:17:38.500Z,69.68
2019-06-26T02:20:05.536Z,69.38
2019-06-26T02:22:32.818Z,69.31
2019-06-26T02:24:59.870Z,68.70
2019-06-26T02:27:27.169Z,68.07
2019-06-26T02:29:54.487Z,67.58
2019-06-26T02:32:21.573Z,67.10
2019-06-26T02:34:48.860Z,66.97
2019-06-26T02:37:15.889Z,67.12
2019-06-26T02:39:43.177Z,67.20
2019-06-26T02:42:10.288Z,67.36
2019-06-26T02:44:51.959Z,67.69
2019-06-26T02:47:19.273Z,68.11
2019-06-26T02:49:36.122Z,68.62
2019-06-26T02:52:03.156Z,68.84
2019-06-26T02:54:30.487Z,69.06
2019-06-26T02:56:57.529Z,69.11
2019-06-26T02:59:24.571Z,69.18
2019-06-26T03:01:51.855Z,69.43
2019-06-26T03:04:18.977Z,69.71
2019-06-26T03:06:46.000Z,70.17
2019-06-26T03:09:13.058Z,70.13
2019-06-26T03:11:40.110Z,70.34
2019-06-26T03:14:07.404Z,70.39
2019-06-26T03:16:34.678Z,70.65
2019-06-26T03:19:02.046Z,70.58
2019-06-26T03:21:29.396Z,70.59
2019-06-26T03:23:56.446Z,70.44
2019-06-26T03:26:23.724Z,70.03
2019-06-26T03:28:51.014Z,69.95
2019-06-26T03:31:18.061Z,70.01
2019-06-26T03:33:45.250Z,70.13
2019-06-26T03:36:12.614Z,70.17
2019-06-26T03:38:39.649Z,70.07
2019-06-26T03:41:06.954Z,69.78
2019-06-26T03:43:35.587Z,69.45
2019-06-26T03:46:02.815Z,69.13
2019-06-26T03:48:29.854Z,68.69
2019-06-26T03:50:56.903Z,68.05
2019-06-26T03:53:24.196Z,67.11
2019-06-26T03:55:51.494Z,66.37
2019-06-26T03:58:18.527Z,66.53
2019-06-26T04:00:45.999Z,66.55
2019-06-26T04:03:13.031Z,66.66
2019-06-26T04:05:40.323Z,66.09
2019-06-26T04:08:07.629Z,65.38
2019-06-26T04:10:34.914Z,64.77
2019-06-26T04:13:02.196Z,63.70
2019-06-26T04:15:41.515Z,62.88
2019-06-26T04:17:58.208Z,61.42
2019-06-26T04:20:25.505Z,60.03
2019-06-26T04:22:52.535Z,58.76
2019-06-26T04:25:19.824Z,57.36
2019-06-26T04:27:47.097Z,56.22
2019-06-26T04:30:14.242Z,55.25
2019-06-26T04:32:41.266Z,54.02
2019-06-26T04:35:08.591Z,53.64
2019-06-26T04:37:35.626Z,52.62
2019-06-26T04:40:02.676Z,51.40
2019-06-26T04:42:31.035Z,50.20
2019-06-26T04:44:58.388Z,49.70
2019-06-26T04:47:25.453Z,49.51
2019-06-26T04:49:52.808Z,48.51
2019-06-26T04:52:20.165Z,47.45
2019-06-26T04:54:47.200Z,44.71
2019-06-26T04:57:14.241Z,44.39
2019-06-26T04:59:41.597Z,42.99
2019-06-26T05:02:08.983Z,42.89
2019-06-26T05:04:36.309Z,42.74
2019-06-26T05:07:04.381Z,42.19
2019-06-26T05:09:31.432Z,41.63
2019-06-26T05:11:58.525Z,40.71
2019-06-26T05:14:25.827Z,39.98
2019-06-26T05:16:52.882Z,38.87
2019-06-26T05:19:20.160Z,37.96
2019-06-26T05:21:47.284Z,37.96
2019-06-26T05:24:14.317Z,37.59
2019-06-26T05:26:41.710Z,37.53
2019-06-26T05:29:09.061Z,37.21
2019-06-26T05:31:36.413Z,36.58
2019-06-26T05:34:03.774Z,36.26
2019-06-26T05:36:30.827Z,36.42
2019-06-26T05:38:57.862Z,36.70
2019-06-26T05:41:24.912Z,36.86
2019-06-26T05:43:52.189Z,36.20
2019-06-26T05:46:30.527Z,36.15
2019-06-26T05:48:47.969Z,36.01
2019-06-26T05:51:15.014Z,35.45
2019-06-26T05:53:42.385Z,35.58
2019-06-26T05:56:09.742Z,34.94
2019-06-26T05:58:38.002Z,34.78
2019-06-26T06:01:05.294Z,34.33
2019-06-26T06:03:32.399Z,34.19
2019-06-26T06:05:59.695Z,34.73
2019-06-26T06:08:26.971Z,34.34
2019-06-26T06:10:57.874Z,33.87
2019-06-26T06:13:24.171Z,33.61
2019-06-26T06:15:51.315Z,33.85
2019-06-26T06:18:18.596Z,34.10
2019-06-26T06:20:45.648Z,33.91
2019-06-26T06:23:12.927Z,33.81
2019-06-26T06:25:40.239Z,33.86
2019-06-26T06:28:07.520Z,34.04
2019-06-26T06:30:34.805Z,34.57
2019-06-26T06:33:01.863Z,34.41
2019-06-26T06:35:29.128Z,34.68
2019-06-26T06:37:56.185Z,34.03
2019-06-26T06:40:23.218Z,34.06
2019-06-26T06:42:50.281Z,34.69
2019-06-26T06:45:17.307Z,34.63
2019-06-26T06:47:44.357Z,34.08
2019-06-26T06:50:11.655Z,34.39
2019-06-26T06:52:38.717Z,33.51
2019-06-26T06:55:05.754Z,33.46
2019-06-26T06:57:32.810Z,34.15
2019-06-26T06:59:59.844Z,34.02
2019-06-26T07:02:27.213Z,34.06
2019-06-26T07:04:54.252Z,34.33
2019-06-26T07:07:21.606Z,34.65
2019-06-26T07:09:48.953Z,34.28
2019-06-26T07:12:16.047Z,34.26
2019-06-26T07:14:43.055Z,35.02
2019-06-26T07:17:19.786Z,34.50
2019-06-26T07:19:39.156Z,34.67
2019-06-26T07:22:07.482Z,35.28
2019-06-26T07:24:34.937Z,35.20
2019-06-26T07:27:02.286Z,35.65
2019-06-26T07:29:29.321Z,36.35
2019-06-26T07:31:56.605Z,36.33
2019-06-26T07:34:23.969Z,34.23
2019-06-26T07:36:51.013Z,34.96
2019-06-26T07:39:18.050Z,35.38
2019-06-26T07:41:45.390Z,35.20
2019-06-26T07:44:12.747Z,34.40
2019-06-26T07:46:40.825Z,34.65
2019-06-26T07:49:07.888Z,34.30
2019-06-26T07:51:36.249Z,34.43
2019-06-26T07:54:03.302Z,34.42
2019-06-26T07:56:30.575Z,34.12
2019-06-26T07:58:57.888Z,33.60
2019-06-26T08:01:24.928Z,34.52
2019-06-26T08:03:53.265Z,34.15
2019-06-26T08:06:20.303Z,34.52
2019-06-26T08:08:47.611Z,37.01
2019-06-26T08:11:14.911Z,37.40
2019-06-26T08:13:42.207Z,38.27
2019-06-26T08:16:09.498Z,38.87
2019-06-26T08:18:36.781Z,39.28
2019-06-26T08:21:12.128Z,37.76
2019-06-26T08:23:33.994Z,37.44
2019-06-26T08:26:01.131Z,37.44
2019-06-26T08:28:28.416Z,36.02
2019-06-26T08:30:55.698Z,35.28
2019-06-26T08:33:22.819Z,35.98
2019-06-26T08:35:50.193Z,35.06
2019-06-26T08:38:17.490Z,34.81
2019-06-26T08:40:44.551Z,34.10
2019-06-26T08:43:11.813Z,33.78
2019-06-26T08:45:39.097Z,35.24
2019-06-26T08:48:19.011Z,36.45
2019-06-26T08:50:35.453Z,37.54
2019-06-26T08:53:02.601Z,36.89
2019-06-26T08:55:29.632Z,35.06
2019-06-26T08:57:56.916Z,34.56
2019-06-26T09:00:23.959Z,35.28
2019-06-26T09:02:51.251Z,35.18
2019-06-26T09:05:18.557Z,34.50
2019-06-26T09:07:45.610Z,34.56
2019-06-26T09:10:12.645Z,34.12
2019-06-26T09:12:39.925Z,33.98
2019-06-26T09:15:07.218Z,34.12
2019-06-26T09:17:34.250Z,33.98
2019-06-26T09:20:01.401Z,34.07
2019-06-26T09:22:28.756Z,34.28
2019-06-26T09:24:56.060Z,33.70
2019-06-26T09:27:23.089Z,32.14
2019-06-26T09:29:50.414Z,33.44
2019-06-26T09:32:17.702Z,32.74
2019-06-26T09:34:44.746Z,32.67
2019-06-26T09:37:13.037Z,34.29
2019-06-26T09:39:40.419Z,34.56
2019-06-26T09:42:07.410Z,34.09
2019-06-26T09:44:34.456Z,33.79
2019-06-26T09:47:01.885Z,33.22
2019-06-26T09:49:29.184Z,32.19
2019-06-26T09:51:56.536Z,33.11
2019-06-26T09:54:23.892Z,32.90
2019-06-26T09:56:50.928Z,32.03
2019-06-26T09:59:18.314Z,30.96
2019-06-26T10:01:45.354Z,31.46
2019-06-26T10:04:12.411Z,31.41
2019-06-26T10:06:39.445Z,31.08
2019-06-26T10:09:06.549Z,29.67
2019-06-26T10:11:33.841Z,30.71
2019-06-26T10:14:00.897Z,30.38
2019-06-26T10:16:28.193Z,29.23
2019-06-26T10:19:09.422Z,28.80
2019-06-26T10:21:24.592Z,30.09
2019-06-26T10:23:51.877Z,29.70
2019-06-26T10:26:18.925Z,30.26
2019-06-26T10:28:45.969Z,29.38
2019-06-26T10:31:13.025Z,31.55
2019-06-26T10:33:40.356Z,31.33
2019-06-26T10:36:07.711Z,30.19
2019-06-26T10:38:35.065Z,28.81
2019-06-26T10:41:02.049Z,27.63
2019-06-26T10:43:29.359Z,26.47
2019-06-26T10:45:56.725Z,26.51
2019-06-26T10:48:24.076Z,26.63
2019-06-26T10:50:58.092Z,27.50
2019-06-26T10:53:20.470Z,25.08
2019-06-26T10:55:47.472Z,24.36
2019-06-26T10:58:14.510Z,23.26
2019-06-26T11:00:41.565Z,24.33
2019-06-26T11:03:09.589Z,23.26
2019-06-26T11:05:36.620Z,24.12
2019-06-26T11:08:03.929Z,22.84
2019-06-26T11:10:30.981Z,24.56
2019-06-26T11:12:58.334Z,24.77
2019-06-26T11:15:25.637Z,25.25
2019-06-26T11:17:52.702Z,25.09
2019-06-26T11:20:20.024Z,24.56
2019-06-26T11:22:47.224Z,24.99
2019-06-26T11:25:14.518Z,25.58
2019-06-26T11:27:41.556Z,24.31
2019-06-26T11:30:08.893Z,26.76
2019-06-26T11:32:35.929Z,25.63
2019-06-26T11:35:03.026Z,25.39
2019-06-26T11:37:30.359Z,25.47
2019-06-26T11:39:57.485Z,25.26
2019-06-26T11:42:24.753Z,24.68
2019-06-26T11:44:52.122Z,24.37
2019-06-26T11:47:19.223Z,24.25
2019-06-26T11:49:59.371Z,23.28
2019-06-26T11:52:15.209Z,22.75
2019-06-26T11:54:42.547Z,23.95
2019-06-26T11:57:09.609Z,24.26
2019-06-26T11:59:36.647Z,24.31
2019-06-26T12:02:03.719Z,24.20
2019-06-26T12:04:30.758Z,23.98
2019-06-26T12:06:58.092Z,24.70
2019-06-26T12:09:25.380Z,24.24
2019-06-26T12:11:52.718Z,23.55
2019-06-26T12:14:20.066Z,23.69
2019-06-26T12:16:47.123Z,23.36
2019-06-26T12:19:14.313Z,24.60
2019-06-26T12:21:41.725Z,25.37
2019-06-26T12:24:09.066Z,24.68
2019-06-26T12:26:36.138Z,24.86
2019-06-26T12:29:03.176Z,25.76
2019-06-26T12:31:30.521Z,24.68
2019-06-26T12:33:57.883Z,24.17
2019-06-26T12:36:25.523Z,25.18
2019-06-26T12:38:52.526Z,24.02
2019-06-26T12:41:19.859Z,24.01
2019-06-26T12:43:46.893Z,24.54
2019-06-26T12:46:17.956Z,25.25
2019-06-26T12:48:42.973Z,26.31
2019-06-26T12:51:10.032Z,27.37
2019-06-26T12:53:37.430Z,27.58
2019-06-26T12:56:04.514Z,31.28
2019-06-26T12:58:31.794Z,31.87
2019-06-26T13:00:59.146Z,32.54
2019-06-26T13:03:26.561Z,31.91
2019-06-26T13:05:53.662Z,32.92
2019-06-26T13:08:20.720Z,36.72
2019-06-26T13:10:49.945Z,35.86
2019-06-26T13:13:17.088Z,35.87
2019-06-26T13:15:44.125Z,35.72
2019-06-26T13:18:11.490Z,34.51
2019-06-26T13:20:52.183Z,34.26
2019-06-26T13:23:07.541Z,34.17
2019-06-26T13:25:34.853Z,33.63
2019-06-26T13:28:01.876Z,34.57
2019-06-26T13:30:29.187Z,34.90
2019-06-26T13:32:56.313Z,34.21
2019-06-26T13:35:24.314Z,35.86
2019-06-26T13:37:51.887Z,36.11
2019-06-26T13:40:19.238Z,36.21
2019-06-26T13:42:46.295Z,36.22
2019-06-26T13:45:13.335Z,36.22
2019-06-26T13:47:40.689Z,35.98
2019-06-26T13:50:07.761Z,36.32
2019-06-26T13:52:35.043Z,36.95
2019-06-26T13:55:02.450Z,38.43
2019-06-26T13:57:29.786Z,36.06
2019-06-26T13:59:57.146Z,36.24
2019-06-26T14:02:24.193Z,36.33
2019-06-26T14:04:51.562Z,37.03
2019-06-26T14:07:18.898Z,35.86
2019-06-26T14:09:46.272Z,36.57
2019-06-26T14:12:13.624Z,36.11
2019-06-26T14:14:56.831Z,35.34
2019-06-26T14:17:10.072Z,35.00
2019-06-26T14:19:37.093Z,36.05
2019-06-26T14:22:04.132Z,35.54
2019-06-26T14:24:31.187Z,36.83
2019-06-26T14:26:58.577Z,34.77
2019-06-26T14:29:25.640Z,36.13
2019-06-26T14:31:52.942Z,36.15
2019-06-26T14:34:20.345Z,35.80
2019-06-26T14:36:47.686Z,36.66
2019-06-26T14:39:14.742Z,35.40
2019-06-26T14:41:41.781Z,34.70
2019-06-26T14:44:09.123Z,35.57
2019-06-26T14:46:36.477Z,36.03
2019-06-26T14:49:03.553Z,36.73
2019-06-26T14:51:43.554Z,36.58
2019-06-26T14:53:59.568Z,35.90
2019-06-26T14:56:34.807Z,36.31
2019-06-26T14:59:02.181Z,37.88
2019-06-26T15:01:29.452Z,38.05
2019-06-26T15:03:56.883Z,37.91
2019-06-26T15:06:35.488Z,38.03
2019-06-26T15:09:02.542Z,38.32
2019-06-26T15:11:31.138Z,38.04
2019-06-26T15:13:58.192Z,37.12
2019-06-26T15:16:25.228Z,37.93
2019-06-26T15:21:25.484Z,38.03
2019-06-26T15:23:52.542Z,36.76
2019-06-26T15:26:20.652Z,37.93
2019-06-26T15:28:47.709Z,39.01
2019-06-26T15:31:14.999Z,39.73
2019-06-26T15:33:43.534Z,40.95
2019-06-26T15:36:10.755Z,38.12
2019-06-26T15:38:38.121Z,37.74
2019-06-26T15:41:05.360Z,37.94
2019-06-26T15:43:32.708Z,36.40
2019-06-26T15:46:03.817Z,37.19
2019-06-26T15:48:31.020Z,36.14
2019-06-26T15:50:58.251Z,36.79
2019-06-26T15:53:29.466Z,37.02
2019-06-26T15:55:56.514Z,37.18
2019-06-26T16:01:11.112Z,37.66
2019-06-26T16:03:38.172Z,36.08
2019-06-26T16:08:53.973Z,36.91
2019-06-26T16:11:21.313Z,38.26
2019-06-26T16:13:48.508Z,38.06
2019-06-26T16:16:17.011Z,37.65
2019-06-26T16:18:49.099Z,36.55
2019-06-26T16:24:01.932Z,37.62
2019-06-26T16:26:28.965Z,37.11
2019-06-26T16:28:56.016Z,38.54
2019-06-26T16:31:23.384Z,38.34
2019-06-26T16:33:51.057Z,38.62
2019-06-26T16:36:19.266Z,38.40
2019-06-26T16:38:53.863Z,39.23
2019-06-26T16:41:20.919Z,39.54
2019-06-26T16:43:47.966Z,40.21
2019-06-26T16:46:15.314Z,40.47
2019-06-26T16:48:44.816Z,40.35
2019-06-26T16:51:14.326Z,40.90
2019-06-26T16:53:41.950Z,41.15
2019-06-26T16:56:11.226Z,40.83
2019-06-26T16:58:45.217Z,41.93
2019-06-26T17:01:12.531Z,42.15
2019-06-26T17:03:39.815Z,43.00
2019-06-26T17:06:08.127Z,43.99
2019-06-26T17:08:35.155Z,43.46
2019-06-26T17:11:02.213Z,43.15
2019-06-26T17:13:30.110Z,43.34
2019-06-26T17:15:57.400Z,43.14
2019-06-26T17:18:24.442Z,42.90
2019-06-26T17:20:52.562Z,43.42
2019-06-26T17:23:20.399Z,41.93
2019-06-26T17:25:47.719Z,42.54
2019-06-26T17:28:16.629Z,42.84
2019-06-26T17:30:44.070Z,43.15
2019-06-26T17:33:11.729Z,43.07
2019-06-26T17:35:39.035Z,43.52
2019-06-26T17:38:06.322Z,43.63
2019-06-26T17:40:33.378Z,43.74
2019-06-26T17:43:11.743Z,43.95
2019-06-26T17:45:30.498Z,44.33
2019-06-26T17:47:58.446Z,44.36
2019-06-26T17:50:25.502Z,44.40
2019-06-26T17:52:52.785Z,44.59
2019-06-26T17:55:19.849Z,44.78
2019-06-26T17:57:48.019Z,44.89
2019-06-26T18:00:15.290Z,45.25
2019-06-26T18:02:42.532Z,45.48
2019-06-26T18:05:09.836Z,45.59
2019-06-26T18:07:37.085Z,45.47
2019-06-26T18:10:04.124Z,45.75
2019-06-26T18:12:31.177Z,45.87
2019-06-26T18:14:58.215Z,46.11
2019-06-26T18:17:25.498Z,46.33
2019-06-26T18:19:53.943Z,46.48
2019-06-26T18:22:21.355Z,46.51
2019-06-26T18:24:48.576Z,46.69
2019-06-26T18:27:15.894Z,47.66
2019-06-26T18:29:43.253Z,48.50
2019-06-26T18:32:10.442Z,49.06
2019-06-26T18:34:37.775Z,49.18
2019-06-26T18:37:04.831Z,49.19
2019-06-26T18:39:32.158Z,49.22
2019-06-26T18:41:59.209Z,49.21
2019-06-26T18:44:32.328Z,49.54
2019-06-26T18:46:59.382Z,49.59
2019-06-26T18:49:27.557Z,49.73
2019-06-26T18:51:54.825Z,49.87
2019-06-26T18:54:22.102Z,49.63
2019-06-26T18:56:49.483Z,49.58
2019-06-26T18:59:24.823Z,49.43
2019-06-26T19:01:52.299Z,49.42
2019-06-26T19:04:19.561Z,49.83
2019-06-26T19:06:46.618Z,50.10
2019-06-26T19:09:16.050Z,50.53
2019-06-26T19:11:43.502Z,50.51
2019-06-26T19:14:10.797Z,50.20
2019-06-26T19:16:38.370Z,50.11
2019-06-26T19:19:05.402Z,49.87
2019-06-26T19:21:32.453Z,50.35
2019-06-26T19:24:09.766Z,50.16
2019-06-26T19:26:28.594Z,50.28
2019-06-26T19:28:55.638Z,50.20
2019-06-26T19:31:22.689Z,51.18
2019-06-26T19:33:50.019Z,52.16
2019-06-26T19:36:28.563Z,51.85
2019-06-26T19:38:54.309Z,51.64
2019-06-26T19:41:24.550Z,51.62
2019-06-26T19:43:51.603Z,51.64
2019-06-26T19:46:18.903Z,51.29
2019-06-26T19:48:47.127Z,50.85
2019-06-26T19:51:14.438Z,50.67
2019-06-26T19:53:41.495Z,50.62
2019-06-26T19:56:20.344Z,50.51
2019-06-26T19:58:48.886Z,50.66
2019-06-26T20:01:16.245Z,50.68
2019-06-26T20:03:43.536Z,50.96
2019-06-26T20:06:12.724Z,50.89
2019-06-26T20:08:53.072Z,50.92
2019-06-26T20:11:08.841Z,50.99
2019-06-26T20:13:36.193Z,51.06
2019-06-26T20:16:03.308Z,51.18
2019-06-26T20:18:30.719Z,51.30
2019-06-26T20:21:05.041Z,51.50
2019-06-26T20:23:33.235Z,51.74
2019-06-26T20:26:00.544Z,51.98
2019-06-26T20:28:27.848Z,52.28
2019-06-26T20:30:55.149Z,52.50
2019-06-26T20:33:22.202Z,52.92
2019-06-26T20:35:49.573Z,53.06
2019-06-26T20:38:16.621Z,53.38
2019-06-26T20:40:46.042Z,53.46
2019-06-26T20:43:12.419Z,53.57
2019-06-26T20:45:39.811Z,53.74
2019-06-26T20:48:06.861Z,53.99
2019-06-26T20:50:33.899Z,53.99
2019-06-26T20:53:00.951Z,54.04
2019-06-26T20:55:27.991Z,54.03
2019-06-26T20:57:55.340Z,53.88
2019-06-26T21:00:23.350Z,53.99
2019-06-26T21:02:54.001Z,55.12
2019-06-26T21:05:19.395Z,55.43
2019-06-26T21:07:46.686Z,55.49
2019-06-26T21:10:13.962Z,55.24
2019-06-26T21:12:41.017Z,55.18
2019-06-26T21:15:08.057Z,54.88
2019-06-26T21:17:35.412Z,54.67
2019-06-26T21:20:02.761Z,54.56
2019-06-26T21:22:29.977Z,54.53
2019-06-26T21:24:57.043Z,54.61
2019-06-26T21:27:24.437Z,54.66
2019-06-26T21:29:51.519Z,54.46
2019-06-26T21:32:18.867Z,54.70
2019-06-26T21:34:45.979Z,54.59
2019-06-26T21:37:13.020Z,54.56
2019-06-26T21:39:40.391Z,54.53
2019-06-26T21:42:07.654Z,54.60
2019-06-26T21:44:34.711Z,54.62
2019-06-26T21:47:01.763Z,54.56
2019-06-26T21:49:28.818Z,54.76
2019-06-26T21:51:55.860Z,54.73
2019-06-26T21:54:23.172Z,54.92
2019-06-26T21:57:09.481Z,54.82
2019-06-26T21:59:54.276Z,54.80
2019-06-26T22:02:39.288Z,55.15
2019-06-26T22:05:07.183Z,55.46
2019-06-26T22:07:39.224Z,55.80
2019-06-26T22:10:13.642Z,56.00
2019-06-26T22:12:41.040Z,56.49
2019-06-26T22:15:08.477Z,56.57
2019-06-26T22:17:37.465Z,56.42
2019-06-26T22:20:08.702Z,56.32
2019-06-26T22:22:33.495Z,56.29
2019-06-26T22:25:00.542Z,56.21
2019-06-26T22:27:27.819Z,56.18
2019-06-26T22:29:54.881Z,56.06
2019-06-26T22:32:21.919Z,55.87
2019-06-26T22:34:48.977Z,55.76
2019-06-26T22:37:16.301Z,55.76
2019-06-26T22:39:43.354Z,55.68
2019-06-26T22:42:10.478Z,55.73
2019-06-26T22:44:37.599Z,55.64
2019-06-26T22:47:04.727Z,55.55
2019-06-26T22:49:31.788Z,55.31
2019-06-26T22:51:59.106Z,55.28
2019-06-26T22:54:26.235Z,55.65
2019-06-26T22:56:53.607Z,55.76
2019-06-26T22:59:20.978Z,55.89
2019-06-26T23:01:48.097Z,56.17
2019-06-26T23:04:15.390Z,56.93
2019-06-26T23:06:42.722Z,57.49
2019-06-26T23:09:09.789Z,57.55
2019-06-26T23:11:37.094Z,57.16
2019-06-26T23:14:05.120Z,56.73
2019-06-26T23:16:32.455Z,56.09
2019-06-26T23:18:59.815Z,56.31
2019-06-26T23:21:26.944Z,56.85
2019-06-26T23:23:53.999Z,57.40
2019-06-26T23:26:24.418Z,58.48
2019-06-26T23:28:49.792Z,58.79
2019-06-26T23:31:17.837Z,58.84
2019-06-26T23:33:44.865Z,59.04
2019-06-26T23:36:11.924Z,59.38
2019-06-26T23:38:39.262Z,59.87
2019-06-26T23:41:06.319Z,59.87
2019-06-26T23:43:33.359Z,59.53
2019-06-26T23:46:01.399Z,59.43
2019-06-26T23:48:28.779Z,59.57
2019-06-26T23:50:56.142Z,59.03
2019-06-26T23:53:23.430Z,58.64
2019-06-26T23:55:50.849Z,58.70
2019-06-26T23:58:18.201Z,58.60
